createdAt,value
2022-12-03T00:00:49.818Z,269.42
2022-12-03T00:03:17.376Z,247.18
2022-12-03T00:05:48.859Z,249.82
2022-12-03T00:08:16.382Z,279.63
2022-12-03T00:10:43.282Z,320.83
2022-12-03T00:13:11.134Z,283.25
2022-12-03T00:15:38.884Z,290.63
2022-12-03T00:18:06.751Z,350.38
2022-12-03T00:20:33.428Z,318.98
2022-12-03T00:23:00.199Z,314.80
2022-12-03T00:25:26.962Z,374.25
2022-12-03T00:27:53.795Z,342.00
2022-12-03T00:30:21.496Z,321.23
2022-12-03T00:32:49.058Z,462.03
2022-12-03T00:35:15.846Z,499.70
2022-12-03T00:37:42.531Z,361.38
2022-12-03T00:40:10.813Z,533.97
2022-12-03T00:42:37.616Z,504.05
2022-12-03T00:45:04.799Z,474.65
2022-12-03T00:47:31.583Z,300.30
2022-12-03T00:49:58.361Z,334.27
2022-12-03T00:52:25.188Z,350.17
2022-12-03T00:54:52.318Z,436.33
2022-12-03T00:57:19.303Z,424.13
2022-12-03T00:59:47.143Z,473.60
2022-12-03T01:02:13.994Z,472.08
2022-12-03T01:04:40.950Z,600.50
2022-12-03T01:07:07.719Z,551.20
2022-12-03T01:09:34.474Z,502.40
2022-12-03T01:12:01.218Z,516.97
2022-12-03T01:14:27.938Z,558.10
2022-12-03T01:16:54.669Z,558.83
2022-12-03T01:19:22.622Z,659.33
2022-12-03T01:21:51.555Z,627.40
2022-12-03T01:24:20.175Z,380.50
2022-12-03T01:26:47.386Z,369.88
2022-12-03T01:29:14.518Z,367.52
2022-12-03T01:32:00.809Z,408.37
2022-12-03T01:34:27.766Z,620.65
2022-12-03T01:36:54.675Z,312.48
2022-12-03T01:39:22.829Z,296.83
2022-12-03T01:41:51.649Z,310.20
2022-12-03T01:44:31.782Z,306.88
2022-12-03T01:47:02.069Z,339.17
2022-12-03T01:49:33.352Z,335.05
2022-12-03T01:52:00.447Z,375.48
2022-12-03T01:54:33.501Z,412.73
2022-12-03T01:57:01.310Z,260.53
2022-12-03T01:59:35.370Z,267.63
2022-12-03T02:02:12.938Z,261.38
2022-12-03T02:04:41.003Z,294.67
2022-12-03T02:07:26.776Z,489.43
2022-12-03T02:09:56.253Z,381.80
2022-12-03T02:12:33.649Z,284.30
2022-12-03T02:15:01.521Z,272.60
2022-12-03T02:17:29.420Z,276.08
2022-12-03T02:19:56.731Z,289.88
2022-12-03T02:22:56.787Z,315.75
2022-12-03T02:25:25.879Z,352.60
2022-12-03T02:27:54.449Z,345.88
2022-12-03T02:30:24.472Z,519.40
2022-12-03T02:32:53.138Z,507.10
2022-12-03T02:35:22.865Z,529.00
2022-12-03T02:37:54.671Z,529.33
2022-12-03T02:40:24.558Z,637.90
2022-12-03T02:42:55.642Z,767.35
2022-12-03T02:45:43.373Z,881.15
2022-12-03T02:48:17.794Z,1009.20
2022-12-03T02:50:52.482Z,1031.80
2022-12-03T02:53:36.450Z,1051.78
2022-12-03T02:56:05.470Z,1054.93
2022-12-03T02:58:33.716Z,466.77
2022-12-03T03:01:03.536Z,450.35
2022-12-03T03:03:32.439Z,493.20
2022-12-03T03:06:02.645Z,448.17
2022-12-03T03:08:30.960Z,491.92
2022-12-03T03:11:00.945Z,503.45
2022-12-03T03:13:29.732Z,426.17
2022-12-03T03:15:57.163Z,405.35
2022-12-03T03:18:24.237Z,323.38
2022-12-03T03:20:51.418Z,408.30
2022-12-03T03:23:20.324Z,820.70
2022-12-03T03:25:53.876Z,965.70
2022-12-03T03:28:22.559Z,902.78
2022-12-03T03:30:50.609Z,892.90
2022-12-03T03:33:18.768Z,884.92
2022-12-03T03:35:47.826Z,846.95
2022-12-03T03:38:16.474Z,751.30
2022-12-03T03:40:43.936Z,806.38
2022-12-03T03:43:12.829Z,1028.55
2022-12-03T03:45:39.726Z,971.35
2022-12-03T03:48:07.895Z,1000.70
2022-12-03T03:50:36.344Z,1008.42
2022-12-03T03:53:05.078Z,988.20
2022-12-03T03:55:32.394Z,963.05
2022-12-03T03:57:59.260Z,825.03
2022-12-03T04:00:26.420Z,808.13
2022-12-03T04:02:54.371Z,891.58
2022-12-03T04:05:24.063Z,847.75
2022-12-03T04:07:51.074Z,818.87
2022-12-03T04:10:37.399Z,808.25
2022-12-03T04:13:05.241Z,692.67
2022-12-03T04:15:32.425Z,757.43
2022-12-03T04:18:17.662Z,832.05
2022-12-03T04:20:45.430Z,761.45
2022-12-03T04:23:12.278Z,571.50
2022-12-03T04:25:57.495Z,631.42
2022-12-03T04:28:42.869Z,370.30
2022-12-03T04:31:28.505Z,348.98
2022-12-03T04:34:14.943Z,346.00
2022-12-03T04:36:41.694Z,607.60
2022-12-03T04:39:08.422Z,545.20
2022-12-03T04:41:35.160Z,504.93
2022-12-03T04:44:20.424Z,290.80
2022-12-03T04:46:47.252Z,318.25
2022-12-03T04:49:13.990Z,251.07
2022-12-03T04:51:41.778Z,261.60
2022-12-03T04:54:08.682Z,237.07
2022-12-03T04:56:35.441Z,274.90
2022-12-03T04:59:02.163Z,226.05
2022-12-03T05:01:28.973Z,244.15
2022-12-03T05:03:55.958Z,216.40
2022-12-03T05:06:22.726Z,243.27
2022-12-03T05:08:49.444Z,274.20
2022-12-03T05:11:16.272Z,263.80
2022-12-03T05:13:43.346Z,252.25
2022-12-03T05:16:10.812Z,248.18
2022-12-03T05:18:37.706Z,188.68
2022-12-03T05:21:04.505Z,164.43
2022-12-03T05:23:32.283Z,155.77
2022-12-03T05:25:59.023Z,170.07
2022-12-03T05:28:26.116Z,183.73
2022-12-03T05:30:52.961Z,227.70
2022-12-03T05:33:21.044Z,221.30
2022-12-03T05:35:48.808Z,180.03
2022-12-03T05:38:15.546Z,192.70
2022-12-03T05:40:43.308Z,174.70
2022-12-03T05:43:10.144Z,194.03
2022-12-03T05:45:40.024Z,196.63
2022-12-03T05:48:09.321Z,285.43
2022-12-03T05:50:38.307Z,325.00
2022-12-03T05:53:15.148Z,371.05
2022-12-03T05:55:42.173Z,387.90
2022-12-03T05:58:09.694Z,360.38
2022-12-03T06:00:42.353Z,355.02
2022-12-03T06:03:10.655Z,344.80
2022-12-03T06:05:37.651Z,312.48
2022-12-03T06:08:04.724Z,346.52
2022-12-03T06:10:31.517Z,400.23
2022-12-03T06:12:59.429Z,359.15
2022-12-03T06:15:29.217Z,380.13
2022-12-03T06:17:56.059Z,414.65
2022-12-03T06:20:22.797Z,364.00
2022-12-03T06:22:50.585Z,410.50
2022-12-03T06:25:17.838Z,418.25
2022-12-03T06:27:44.958Z,487.75
2022-12-03T06:30:13.154Z,518.00
2022-12-03T06:32:40.406Z,389.25
2022-12-03T06:35:07.503Z,435.77
2022-12-03T06:37:34.263Z,389.00
2022-12-03T06:40:01.071Z,387.40
2022-12-03T06:42:27.861Z,387.63
2022-12-03T06:44:54.908Z,412.10
2022-12-03T06:47:21.990Z,415.93
2022-12-03T06:49:48.713Z,517.55
2022-12-03T06:52:15.421Z,502.80
2022-12-03T06:54:42.173Z,310.27
2022-12-03T06:57:09.983Z,267.60
2022-12-03T06:59:37.552Z,251.13
2022-12-03T07:02:05.191Z,265.57
2022-12-03T07:04:32.032Z,285.58
2022-12-03T07:06:58.853Z,326.55
2022-12-03T07:09:26.727Z,381.83
2022-12-03T07:11:53.482Z,577.33
2022-12-03T07:14:20.413Z,595.78
2022-12-03T07:16:47.578Z,519.97
2022-12-03T07:19:14.519Z,552.28
2022-12-03T07:21:41.514Z,504.03
2022-12-03T07:24:10.522Z,419.75
2022-12-03T07:26:37.252Z,508.88
2022-12-03T07:29:04.537Z,518.00
2022-12-03T07:31:32.459Z,520.67
2022-12-03T07:34:00.900Z,581.42
2022-12-03T07:36:27.603Z,568.97
2022-12-03T07:38:54.386Z,554.67
2022-12-03T07:41:21.103Z,466.10
2022-12-03T07:43:49.005Z,398.48
2022-12-03T07:46:15.868Z,416.17
2022-12-03T07:48:42.801Z,508.83
2022-12-03T07:51:14.226Z,504.83
2022-12-03T07:53:42.097Z,539.07
2022-12-03T07:56:08.990Z,505.42
2022-12-03T07:58:35.738Z,506.70
2022-12-03T08:01:03.023Z,512.65
2022-12-03T08:03:29.830Z,531.95
2022-12-03T08:05:56.511Z,524.88
2022-12-03T08:08:23.389Z,529.53
2022-12-03T08:10:50.150Z,551.47
2022-12-03T08:13:18.582Z,595.97
2022-12-03T08:15:48.346Z,574.30
2022-12-03T08:18:20.518Z,595.58
2022-12-03T08:20:49.573Z,587.33
2022-12-03T08:23:22.223Z,618.22
2022-12-03T08:25:50.510Z,589.47
2022-12-03T08:28:18.922Z,584.35
2022-12-03T08:31:03.136Z,650.67
2022-12-03T08:33:35.906Z,670.53
2022-12-03T08:36:26.710Z,707.05
2022-12-03T08:39:05.203Z,689.47
2022-12-03T08:41:50.478Z,564.60
2022-12-03T08:44:29.055Z,684.53
2022-12-03T08:47:13.014Z,461.48
2022-12-03T08:49:40.821Z,630.08
2022-12-03T08:52:19.251Z,719.83
2022-12-03T08:54:52.986Z,610.83
2022-12-03T08:57:33.083Z,616.00
2022-12-03T09:00:22.094Z,240.93
2022-12-03T09:02:58.797Z,248.23
2022-12-03T09:05:32.357Z,267.58
2022-12-03T09:07:59.519Z,250.30
2022-12-03T09:10:26.390Z,263.70
2022-12-03T09:13:09.163Z,266.65
2022-12-03T09:15:36.390Z,280.77
2022-12-03T09:18:03.342Z,290.85
2022-12-03T09:20:30.071Z,274.40
2022-12-03T09:22:56.771Z,276.25
2022-12-03T09:25:23.566Z,352.17
2022-12-03T09:27:50.734Z,395.67
2022-12-03T09:30:17.664Z,340.02
2022-12-03T09:32:44.689Z,383.70
2022-12-03T09:35:11.591Z,384.23
2022-12-03T09:37:38.341Z,330.33
2022-12-03T09:40:06.002Z,376.02
2022-12-03T09:42:33.543Z,443.88
2022-12-03T09:45:01.676Z,385.77
2022-12-03T09:47:30.726Z,389.80
2022-12-03T09:49:58.312Z,221.15
2022-12-03T09:52:28.954Z,219.73
2022-12-03T09:55:11.022Z,244.55
2022-12-03T09:57:37.832Z,247.82
2022-12-03T10:00:18.806Z,254.77
2022-12-03T10:02:49.409Z,234.63
2022-12-03T10:05:21.702Z,214.73
2022-12-03T10:07:50.420Z,215.30
2022-12-03T10:10:20.725Z,227.45
2022-12-03T10:12:48.194Z,195.30
2022-12-03T10:15:17.694Z,229.38
2022-12-03T10:17:46.003Z,226.85
2022-12-03T10:20:16.144Z,243.48
2022-12-03T10:22:43.290Z,256.75
2022-12-03T10:25:10.557Z,327.17
2022-12-03T10:27:37.507Z,215.02
2022-12-03T10:30:14.767Z,257.52
2022-12-03T10:32:44.600Z,327.17
2022-12-03T10:35:13.639Z,362.33
2022-12-03T10:38:04.611Z,414.90
2022-12-03T10:40:39.189Z,426.27
2022-12-03T10:43:17.790Z,408.85
2022-12-03T10:45:49.908Z,460.00
2022-12-03T10:48:26.315Z,693.60
2022-12-03T10:51:06.926Z,705.87
2022-12-03T10:53:35.681Z,712.22
2022-12-03T10:56:06.456Z,715.30
2022-12-03T10:58:37.803Z,814.57
2022-12-03T11:01:21.537Z,731.03
2022-12-03T11:03:50.242Z,665.95
2022-12-03T11:06:20.034Z,709.58
2022-12-03T11:08:56.288Z,733.53
2022-12-03T11:11:29.513Z,714.50
2022-12-03T11:14:01.462Z,835.03
2022-12-03T11:16:41.031Z,808.65
2022-12-03T11:19:18.151Z,746.53
2022-12-03T11:22:04.737Z,707.92
2022-12-03T11:24:37.037Z,510.27
2022-12-03T11:27:04.304Z,571.78
2022-12-03T11:29:58.742Z,649.72
2022-12-03T11:32:54.415Z,700.78
2022-12-03T11:35:24.384Z,640.80
2022-12-03T11:37:52.047Z,749.90
2022-12-03T11:40:19.224Z,861.83
2022-12-03T11:42:47.635Z,373.70
2022-12-03T11:45:28.084Z,770.22
2022-12-03T11:48:15.757Z,563.50
2022-12-03T11:50:53.901Z,587.75
2022-12-03T11:53:24.691Z,540.60
2022-12-03T11:56:06.134Z,371.70
2022-12-03T11:58:34.504Z,638.58
2022-12-03T12:01:03.919Z,701.75
2022-12-03T12:03:45.797Z,775.22
2022-12-03T12:06:15.448Z,827.38
2022-12-03T12:09:03.879Z,874.95
2022-12-03T12:11:41.221Z,962.58
2022-12-03T12:14:10.292Z,962.60
2022-12-03T12:16:53.148Z,984.22
2022-12-03T12:19:43.028Z,962.88
2022-12-03T12:22:23.064Z,997.92
2022-12-03T12:24:52.957Z,912.72
2022-12-03T12:27:31.605Z,676.30
2022-12-03T12:30:02.831Z,933.35
2022-12-03T12:32:57.220Z,887.67
2022-12-03T12:35:25.328Z,780.20
2022-12-03T12:38:11.202Z,720.95
2022-12-03T12:40:41.159Z,830.72
2022-12-03T12:43:15.282Z,877.70
2022-12-03T12:45:44.111Z,866.63
2022-12-03T12:48:21.236Z,902.42
2022-12-03T12:50:51.765Z,739.05
2022-12-03T12:53:27.876Z,771.42
2022-12-03T12:56:08.884Z,693.00
2022-12-03T12:58:36.311Z,782.15
2022-12-03T13:01:21.172Z,753.05
2022-12-03T13:03:51.316Z,341.10
2022-12-03T13:06:25.223Z,304.17
2022-12-03T13:08:53.077Z,595.58
2022-12-03T13:11:41.986Z,571.92
2022-12-03T13:14:26.495Z,471.08
2022-12-03T13:16:55.887Z,575.25
2022-12-03T13:19:27.716Z,411.63
2022-12-03T13:22:01.830Z,427.67
2022-12-03T13:24:30.965Z,424.55
2022-12-03T13:26:59.405Z,485.42
2022-12-03T13:29:27.736Z,525.42
2022-12-03T13:32:00.013Z,452.15
2022-12-03T13:34:31.875Z,627.35
2022-12-03T13:37:01.292Z,833.95
2022-12-03T13:39:32.220Z,324.38
2022-12-03T13:42:39.029Z,205.70
2022-12-03T13:45:15.377Z,331.10
2022-12-03T13:47:48.427Z,299.48
2022-12-03T13:50:30.949Z,239.00
2022-12-03T13:52:58.380Z,268.40
2022-12-03T13:55:29.176Z,302.10
2022-12-03T13:57:57.716Z,392.15
2022-12-03T14:00:25.099Z,456.30
2022-12-03T14:02:52.094Z,390.75
2022-12-03T14:05:21.288Z,380.90
2022-12-03T14:07:48.499Z,398.03
2022-12-03T14:10:16.362Z,374.17
2022-12-03T14:12:43.192Z,322.65
2022-12-03T14:15:11.249Z,333.58
2022-12-03T14:17:38.540Z,387.13
2022-12-03T14:20:06.075Z,408.92
2022-12-03T14:22:33.248Z,387.02
2022-12-03T14:25:00.050Z,411.55
2022-12-03T14:27:27.451Z,238.15
2022-12-03T14:29:54.786Z,255.02
2022-12-03T14:32:21.862Z,244.07
2022-12-03T14:34:48.858Z,258.70
2022-12-03T14:37:16.056Z,258.98
2022-12-03T14:39:43.004Z,270.90
2022-12-03T14:42:12.994Z,276.90
2022-12-03T14:44:44.589Z,316.75
2022-12-03T14:47:13.481Z,271.30
2022-12-03T14:49:40.782Z,258.67
2022-12-03T14:52:11.892Z,258.80
2022-12-03T14:54:41.861Z,260.80
2022-12-03T14:57:09.237Z,251.77
2022-12-03T14:59:36.060Z,295.35
2022-12-03T15:02:04.336Z,267.75
2022-12-03T15:04:31.267Z,272.65
2022-12-03T15:06:57.963Z,282.17
2022-12-03T15:09:25.091Z,278.92
2022-12-03T15:11:52.215Z,300.88
2022-12-03T15:14:19.426Z,298.83
2022-12-03T15:16:46.271Z,223.55
2022-12-03T15:19:14.692Z,285.98
2022-12-03T15:21:41.981Z,237.30
2022-12-03T15:24:10.347Z,261.75
2022-12-03T15:26:37.169Z,281.40
2022-12-03T15:29:04.334Z,290.27
2022-12-03T15:31:31.647Z,253.27
2022-12-03T15:33:58.940Z,319.75
2022-12-03T15:36:26.551Z,292.35
2022-12-03T15:38:53.705Z,315.85
2022-12-03T15:41:28.693Z,282.85
2022-12-03T15:43:59.869Z,289.00
2022-12-03T15:46:31.460Z,308.50
2022-12-03T15:49:01.609Z,317.70
2022-12-03T15:51:28.839Z,346.67
2022-12-03T15:53:55.711Z,301.75
2022-12-03T15:56:22.958Z,342.17
2022-12-03T15:58:50.187Z,284.15
2022-12-03T16:01:18.254Z,344.98
2022-12-03T16:03:46.365Z,337.60
2022-12-03T16:06:14.629Z,333.20
2022-12-03T16:08:41.440Z,399.77
2022-12-03T16:11:08.368Z,431.52
2022-12-03T16:13:36.114Z,354.33
2022-12-03T16:16:03.354Z,339.83
2022-12-03T16:18:30.263Z,322.05
2022-12-03T16:20:57.042Z,401.77
2022-12-03T16:23:24.334Z,397.73
2022-12-03T16:25:51.604Z,514.45
2022-12-03T16:28:18.845Z,490.15
2022-12-03T16:30:46.125Z,526.47
2022-12-03T16:33:13.407Z,486.67
2022-12-03T16:35:40.606Z,480.42
2022-12-03T16:38:08.461Z,505.65
2022-12-03T16:40:36.615Z,509.85
2022-12-03T16:43:04.873Z,488.40
2022-12-03T16:45:35.181Z,511.60
2022-12-03T16:48:02.563Z,513.83
2022-12-03T16:50:30.562Z,455.83
2022-12-03T16:52:58.508Z,500.23
2022-12-03T16:55:25.682Z,446.67
2022-12-03T16:57:52.485Z,448.83
2022-12-03T17:00:21.700Z,437.10
2022-12-03T17:02:48.814Z,462.47
2022-12-03T17:05:17.725Z,409.08
2022-12-03T17:07:44.514Z,362.88
2022-12-03T17:10:11.770Z,348.05
2022-12-03T17:13:07.835Z,328.85
2022-12-03T17:15:26.899Z,321.88
2022-12-03T17:17:54.741Z,389.60
2022-12-03T17:20:21.500Z,378.67
2022-12-03T17:22:48.847Z,440.52
2022-12-03T17:25:17.110Z,427.73
2022-12-03T17:27:45.575Z,436.85
2022-12-03T17:30:13.494Z,454.10
2022-12-03T17:32:40.432Z,486.53
2022-12-03T17:35:07.802Z,506.17
2022-12-03T17:37:34.978Z,543.70
2022-12-03T17:40:02.652Z,454.75
2022-12-03T17:42:29.455Z,567.10
2022-12-03T17:44:56.273Z,663.58
2022-12-03T17:47:24.440Z,404.58
2022-12-03T17:49:52.610Z,395.08
2022-12-03T17:52:19.540Z,129.50
2022-12-03T17:55:09.722Z,350.88
2022-12-03T17:57:33.933Z,573.05
2022-12-03T18:00:01.695Z,646.10
2022-12-03T18:02:39.830Z,667.33
2022-12-03T18:05:07.026Z,639.88
2022-12-03T18:07:34.293Z,557.78
2022-12-03T18:10:01.492Z,568.80
2022-12-03T18:12:28.312Z,120.68
2022-12-03T18:14:55.605Z,134.07
2022-12-03T18:17:24.253Z,172.05
2022-12-03T18:19:51.654Z,165.25
2022-12-03T18:22:19.067Z,157.20
2022-12-03T18:24:47.548Z,136.50
2022-12-03T18:27:17.523Z,139.88
2022-12-03T18:29:44.705Z,142.50
2022-12-03T18:32:27.559Z,137.93
2022-12-03T18:34:56.333Z,177.98
2022-12-03T18:37:28.474Z,195.55
2022-12-03T18:39:58.137Z,211.77
2022-12-03T18:42:26.002Z,215.77
2022-12-03T18:44:55.030Z,259.13
2022-12-03T18:47:24.355Z,273.42
2022-12-03T18:49:52.112Z,257.95
2022-12-03T18:52:22.225Z,317.25
2022-12-03T18:54:49.550Z,422.10
2022-12-03T18:57:17.463Z,591.67
2022-12-03T18:59:44.611Z,529.13
2022-12-03T19:05:08.382Z,556.47
2022-12-03T19:07:35.757Z,501.88
2022-12-03T19:10:03.037Z,323.20
2022-12-03T19:12:31.034Z,562.10
2022-12-03T19:14:58.211Z,453.10
2022-12-03T19:17:26.918Z,435.13
2022-12-03T19:19:54.310Z,451.92
2022-12-03T19:22:21.601Z,434.08
2022-12-03T19:24:48.773Z,432.70
2022-12-03T19:27:15.695Z,404.80
2022-12-03T19:29:42.518Z,387.80
2022-12-03T19:32:09.420Z,409.75
2022-12-03T19:34:36.556Z,410.35
2022-12-03T19:37:03.707Z,426.45
2022-12-03T19:39:30.580Z,332.20
2022-12-03T19:41:57.605Z,254.55
2022-12-03T19:44:24.891Z,249.80
2022-12-03T19:46:51.751Z,184.90
2022-12-03T19:49:21.161Z,201.55
2022-12-03T19:51:48.377Z,417.70
2022-12-03T19:54:15.694Z,784.70
2022-12-03T19:56:44.522Z,794.92
2022-12-03T19:59:13.224Z,501.35
2022-12-03T20:01:40.865Z,483.27
2022-12-03T20:04:08.758Z,415.02
2022-12-03T20:06:40.184Z,154.13
2022-12-03T20:09:11.308Z,149.38
2022-12-03T20:11:39.921Z,130.70
2022-12-03T20:14:10.665Z,127.63
2022-12-03T20:16:37.682Z,60.58
2022-12-03T20:19:06.820Z,113.10
2022-12-03T20:21:35.462Z,405.63
2022-12-03T20:24:02.478Z,408.40
2022-12-03T20:26:29.491Z,420.58
2022-12-03T20:28:58.123Z,55.05
2022-12-03T20:31:28.764Z,42.58
2022-12-03T20:33:58.439Z,140.53
2022-12-03T20:36:27.425Z,137.38
2022-12-03T20:38:56.208Z,124.72
2022-12-03T20:41:24.737Z,130.52
2022-12-03T20:43:53.613Z,190.68
2022-12-03T20:46:20.841Z,166.27
2022-12-03T20:48:48.210Z,99.20
2022-12-03T20:51:19.585Z,119.60
2022-12-03T20:53:47.175Z,62.08
2022-12-03T20:56:27.372Z,49.50
2022-12-03T20:58:55.409Z,45.05
2022-12-03T21:01:24.838Z,56.83
2022-12-03T21:03:54.854Z,20.00
2022-12-03T21:06:22.681Z,31.20
2022-12-03T21:08:50.891Z,26.17
2022-12-03T21:11:21.523Z,51.70
2022-12-03T21:13:49.773Z,49.80
2022-12-03T21:16:34.155Z,47.57
2022-12-03T21:19:09.676Z,23.15
2022-12-03T21:21:37.250Z,20.17
2022-12-03T21:24:04.715Z,21.52
2022-12-03T21:26:32.548Z,30.55
2022-12-03T21:29:00.797Z,69.32
2022-12-03T21:31:30.252Z,138.93
2022-12-03T21:33:59.749Z,100.25
2022-12-03T21:36:27.066Z,80.63
2022-12-03T21:38:55.350Z,39.75
2022-12-03T21:41:22.815Z,24.35
2022-12-03T21:43:51.424Z,26.15
2022-12-03T21:47:09.217Z,42.35
2022-12-03T21:49:06.179Z,47.00
2022-12-03T21:51:34.574Z,40.13
2022-12-03T21:54:01.749Z,47.38
2022-12-03T21:56:31.691Z,83.75
2022-12-03T21:58:59.993Z,54.97
2022-12-03T22:01:29.286Z,150.93
2022-12-03T22:03:56.795Z,128.70
2022-12-03T22:06:24.060Z,339.25
2022-12-03T22:08:52.402Z,278.85
2022-12-03T22:11:23.286Z,300.45
2022-12-03T22:13:52.108Z,233.68
2022-12-03T22:16:21.015Z,132.30
2022-12-03T22:18:49.525Z,138.25
2022-12-03T22:21:19.567Z,164.13
2022-12-03T22:23:47.013Z,151.40
2022-12-03T22:26:16.766Z,335.10
2022-12-03T22:28:49.493Z,253.68
2022-12-03T22:31:17.575Z,261.27
2022-12-03T22:33:48.326Z,251.43
2022-12-03T22:36:21.079Z,272.02
2022-12-03T22:38:50.946Z,259.75
2022-12-03T22:41:19.183Z,283.13
2022-12-03T22:43:48.082Z,282.98
2022-12-03T22:46:15.804Z,275.13
2022-12-03T22:48:46.047Z,285.08
2022-12-03T22:51:20.307Z,264.50
2022-12-03T22:53:53.308Z,277.13
2022-12-03T22:56:22.263Z,283.63
2022-12-03T22:58:50.653Z,317.20
2022-12-03T23:01:28.007Z,275.37
2022-12-03T23:03:55.468Z,295.10
2022-12-03T23:06:23.341Z,302.30
2022-12-03T23:08:50.833Z,314.13
2022-12-03T23:11:18.150Z,309.45
2022-12-03T23:13:46.635Z,322.73
2022-12-03T23:16:16.982Z,345.73
2022-12-03T23:18:45.284Z,337.48
2022-12-03T23:21:29.392Z,344.05
2022-12-03T23:23:59.582Z,319.70
2022-12-03T23:26:27.021Z,327.80
2022-12-03T23:28:54.454Z,262.77
2022-12-03T23:31:27.329Z,326.57
2022-12-03T23:33:56.192Z,322.98
2022-12-03T23:36:25.222Z,328.80
2022-12-03T23:38:52.472Z,302.98
2022-12-03T23:41:20.817Z,332.80
2022-12-03T23:43:48.242Z,335.67
2022-12-03T23:46:21.812Z,137.55
2022-12-03T23:48:50.495Z,270.15
2022-12-03T23:51:20.325Z,280.55
2022-12-03T23:53:47.855Z,179.20
2022-12-03T23:56:20.875Z,180.55
2022-12-03T23:58:49.249Z,185.30
